Terminal Aerodrome Forecast
Issued by NWS Billings, MT

Home | Current Version | Previous Version | Text Only | Print | Product List | Glossary On
Versions: 1 2 3 4 5 6 7 8 9 10 11 12 13 14 15 16 17 18 19 20 21 22 23 24 25 26
000
FTUS45 KBYZ 040526
TAFMLS
TAF
KMLS 040526Z 0406/0506 06006KT P6SM SCT090 BKN120
     FM041200 12011KT P6SM SCT120
     FM041600 13015G24KT P6SM BKN050
     FM050300 14010KT P6SM SCT100=

USA.gov is the U.S. government's official web portal to all federal, state and local government web resources and services.